»·PEaware :: UAL233 KSFO-KEWR

UAL233 :: KSFO-KEWR

FLIGHT INFORMATION

Flight Status: Arrived
Operator:
United Airlines
More flights by this operator :: More flights under this callsign
Pilot: Henderson P. (1210)
Aircraft: BOEING 777-200
(B772)
More flights by this aircraft type
Origin: KSFO San Francisco Intl
United States
Destination: KEWR Newark Intl
United States
More flights between these airports :: More routes between these airports
Route: TRUKN2 ORRCA Q120 GALLI MLD ISN GFK YQT CHICA BONAB ETMOK POLTY BUGSY HANAA FLOSI3
File this flight plan on PilotEdge
Remarks:
Altitude:
(Current/Filed)
35,000ft
Speed:
(Current/Filed)
486kts
Departed: 11-Sep-18 07:27 AM
Arrived: 11-Sep-18 12:51 PM
Distance/Time
Traveled:
2222nm/5:24
Distance/Time
To Go:
Arrived

Flight Plot

Page will automatically refresh every two minutes.

Flight plan parsing failed; only flown route is shown


Map Options




Map Legend


Flown Route
Filed Route
Departure Airport
Arrival Airport
Navaid (VOR, NDB)
Fix

Horizontal Profiles

Position Reports

Time Latitude Longitude Heading Altitude Ground
Speed
11-Sep-18 07:07 37.621541 -122.389986 208 26ft 0kts
11-Sep-18 07:08 37.621541 -122.389986 208 26ft 0kts
11-Sep-18 07:09 37.621541 -122.389986 208 26ft 0kts
11-Sep-18 07:10 37.621541 -122.389986 208 26ft 0kts
11-Sep-18 07:11 37.621541 -122.389986 208 26ft 0kts
11-Sep-18 07:12 37.621541 -122.389986 208 26ft 0kts
11-Sep-18 07:13 37.621541 -122.389986 208 26ft 0kts
11-Sep-18 07:14 37.622035 -122.389674 190 26ft 2kts
11-Sep-18 07:15 37.622451 -122.389955 98 26ft 2kts
11-Sep-18 07:16 37.622377 -122.390565 72 26ft 0kts
11-Sep-18 07:17 37.622377 -122.390565 72 26ft 0kts
11-Sep-18 07:18 37.622377 -122.390565 72 26ft 0kts
11-Sep-18 07:19 37.622406 -122.390444 73 26ft 3kts
11-Sep-18 07:20 37.622169 -122.388022 117 26ft 7kts
11-Sep-18 07:21 37.620875 -122.384926 117 26ft 12kts
11-Sep-18 07:22 37.619256 -122.381053 118 26ft 12kts
11-Sep-18 07:23 37.616412 -122.379785 206 26ft 11kts
11-Sep-18 07:24 37.614014 -122.381373 207 26ft 8kts
11-Sep-18 07:25 37.612092 -122.382650 207 26ft 7kts
11-Sep-18 07:26 37.609842 -122.384302 218 26ft 9kts
11-Sep-18 07:27 37.608395 -122.383570 117 26ft 8kts
11-Sep-18 07:28 37.609216 -122.382051 27 26ft 33kts
11-Sep-18 07:29 37.643205 -122.355683 42 1544ft 189kts
11-Sep-18 07:30 37.678633 -122.289534 54 4001ft 266kts
11-Sep-18 07:31 37.724602 -122.211327 40 7533ft 285kts
11-Sep-18 07:32 37.790167 -122.148961 32 10024ft 303kts
11-Sep-18 07:33 37.869104 -122.077670 32 11520ft 377kts
11-Sep-18 07:34 37.957018 -121.997831 32 14579ft 400kts
11-Sep-18 07:35 38.049438 -121.913387 32 17440ft 421kts
11-Sep-18 07:36 38.146864 -121.824188 32 20014ft 441kts
11-Sep-18 07:37 38.248429 -121.731888 32 22454ft 459kts
11-Sep-18 07:38 38.353242 -121.635235 32 24658ft 477kts
11-Sep-18 07:39 38.456117 -121.522827 44 26761ft 502kts
11-Sep-18 07:40 38.538800 -121.395370 49 28756ft 521kts
11-Sep-18 07:41 38.629308 -121.246204 49 31006ft 537kts
11-Sep-18 07:42 38.720904 -121.095856 48 33492ft 536kts
11-Sep-18 07:43 38.812349 -120.944524 49 34983ft 538kts
11-Sep-18 07:44 38.903375 -120.792888 49 35005ft 536kts
11-Sep-18 07:45 38.994891 -120.639685 49 35098ft 544kts
11-Sep-18 07:46 39.086871 -120.484961 49 35143ft 542kts
11-Sep-18 07:47 39.178188 -120.330605 49 35165ft 543kts
11-Sep-18 07:48 39.269592 -120.175357 49 35185ft 543kts
11-Sep-18 07:49 39.360504 -120.020191 50 35183ft 543kts
11-Sep-18 07:50 39.451212 -119.864620 50 35118ft 541kts
11-Sep-18 07:51 39.541776 -119.708528 50 35099ft 541kts
11-Sep-18 07:52 39.632086 -119.552109 50 35093ft 542kts
11-Sep-18 07:53 39.722238 -119.395672 50 35081ft 542kts
11-Sep-18 07:54 39.812246 -119.238095 50 35070ft 541kts
11-Sep-18 07:55 39.901444 -119.080561 52 35062ft 541kts
11-Sep-18 07:56 39.983535 -118.916180 54 35055ft 541kts
11-Sep-18 07:57 40.057099 -118.744846 60 35051ft 540kts
11-Sep-18 07:58 40.129116 -118.573189 59 35048ft 540kts
11-Sep-18 07:59 40.202448 -118.401773 59 35050ft 540kts
11-Sep-18 08:00 40.274490 -118.229551 59 35053ft 540kts
11-Sep-18 08:01 40.345165 -118.055627 62 35058ft 540kts
11-Sep-18 08:02 40.408436 -117.877270 63 35061ft 539kts
11-Sep-18 08:03 40.472364 -117.698682 63 35062ft 539kts
11-Sep-18 08:04 40.537083 -117.520991 63 35062ft 538kts
11-Sep-18 08:05 40.600789 -117.343129 63 35062ft 538kts
11-Sep-18 08:06 40.664184 -117.164777 63 35060ft 537kts
11-Sep-18 08:07 40.727189 -116.986381 63 35060ft 537kts
11-Sep-18 08:08 40.789875 -116.807778 63 35062ft 537kts
11-Sep-18 08:09 40.852187 -116.629123 64 35064ft 536kts
11-Sep-18 08:10 40.914273 -116.449984 64 35068ft 536kts
11-Sep-18 08:11 40.976010 -116.270714 64 35078ft 535kts
11-Sep-18 08:12 41.037418 -116.091259 64 35083ft 534kts
11-Sep-18 08:13 41.098455 -115.911739 64 35085ft 533kts
11-Sep-18 08:14 41.159246 -115.731791 64 35084ft 532kts
11-Sep-18 08:15 41.219388 -115.552607 64 35080ft 532kts
11-Sep-18 08:16 41.279321 -115.372886 64 35074ft 532kts
11-Sep-18 08:17 41.339067 -115.192554 65 35067ft 532kts
11-Sep-18 08:18 41.398359 -115.012419 65 35060ft 531kts
11-Sep-18 08:19 41.457318 -114.832101 65 35055ft 531kts
11-Sep-18 08:20 41.516006 -114.651448 65 35051ft 530kts
11-Sep-18 08:21 41.574265 -114.470908 65 35049ft 529kts
11-Sep-18 08:22 41.632113 -114.290442 65 35047ft 528kts
11-Sep-18 08:23 41.689559 -114.110028 65 35046ft 528kts
11-Sep-18 08:24 41.746669 -113.929460 66 35042ft 526kts
11-Sep-18 08:25 41.803491 -113.748586 66 35037ft 526kts
11-Sep-18 08:26 41.860109 -113.567142 66 35036ft 526kts
11-Sep-18 08:27 41.916355 -113.385650 66 35036ft 526kts
11-Sep-18 08:28 41.972071 -113.204635 66 35036ft 526kts
11-Sep-18 08:29 42.027640 -113.022858 66 35036ft 524kts
11-Sep-18 08:30 42.082664 -112.841779 66 35036ft 522kts
11-Sep-18 08:31 42.137387 -112.661121 66 35035ft 520kts
11-Sep-18 08:32 42.192424 -112.480629 61 35039ft 517kts
11-Sep-18 08:33 42.285250 -112.337652 36 35040ft 506kts
11-Sep-18 08:34 42.391784 -112.212746 38 35039ft 507kts
11-Sep-18 08:35 42.495848 -112.084193 38 35040ft 508kts
11-Sep-18 08:36 42.600168 -111.954636 39 35058ft 508kts
11-Sep-18 08:37 42.704131 -111.824285 39 35072ft 508kts
11-Sep-18 08:38 42.808032 -111.693310 39 35091ft 509kts
11-Sep-18 08:39 42.911854 -111.561791 39 35096ft 510kts
11-Sep-18 08:40 43.016031 -111.429180 39 35094ft 511kts
11-Sep-18 08:41 43.119648 -111.296641 39 35097ft 511kts
11-Sep-18 08:42 43.223433 -111.163238 40 35102ft 511kts
11-Sep-18 08:43 43.327171 -111.029239 40 35126ft 512kts
11-Sep-18 08:44 43.427103 -110.899533 40 35133ft 512kts
11-Sep-18 08:45 43.530477 -110.764700 40 35138ft 512kts
11-Sep-18 08:46 43.633832 -110.629227 41 35139ft 512kts
11-Sep-18 08:47 43.737146 -110.493125 41 35139ft 513kts
11-Sep-18 08:48 43.840186 -110.356701 41 35143ft 513kts
11-Sep-18 08:49 43.943320 -110.219466 41 35146ft 513kts
11-Sep-18 08:50 44.046150 -110.081938 41 35147ft 514kts
11-Sep-18 08:51 44.149094 -109.943558 42 35144ft 514kts
11-Sep-18 08:52 44.251487 -109.805214 42 35134ft 514kts
11-Sep-18 08:53 44.354003 -109.665989 42 35108ft 514kts
11-Sep-18 08:54 44.456346 -109.526286 42 35081ft 513kts
11-Sep-18 08:55 44.558230 -109.386483 42 35055ft 513kts
11-Sep-18 08:56 44.660180 -109.245864 42 35043ft 512kts
11-Sep-18 08:57 44.761479 -109.105413 42 35036ft 512kts
11-Sep-18 08:58 44.862748 -108.964279 42 35022ft 512kts
11-Sep-18 08:59 44.963919 -108.822536 42 35020ft 512kts
11-Sep-18 09:00 45.065024 -108.680134 42 35016ft 512kts
11-Sep-18 09:01 45.165588 -108.537746 43 35012ft 512kts
11-Sep-18 09:02 45.266173 -108.394568 43 35008ft 512kts
11-Sep-18 09:03 45.366460 -108.251053 43 35007ft 512kts
11-Sep-18 09:04 45.466621 -108.106956 43 35006ft 512kts
11-Sep-18 09:05 45.566780 -107.962083 43 35009ft 512kts
11-Sep-18 09:06 45.666404 -107.817204 43 35009ft 511kts
11-Sep-18 09:07 45.765878 -107.671753 43 35009ft 511kts
11-Sep-18 09:08 45.864927 -107.526146 43 35014ft 511kts
11-Sep-18 09:09 45.964188 -107.379426 43 35013ft 511kts
11-Sep-18 09:10 46.062832 -107.232808 43 35003ft 512kts
11-Sep-18 09:11 46.161907 -107.084756 43 34998ft 512kts
11-Sep-18 09:12 46.244013 -106.961440 43 34995ft 511kts
11-Sep-18 09:13 46.358724 -106.788184 43 34983ft 510kts
11-Sep-18 09:14 46.456296 -106.639933 43 34973ft 509kts
11-Sep-18 09:15 46.537663 -106.515671 43 34971ft 508kts
11-Sep-18 09:16 46.634852 -106.366481 43 34970ft 508kts
11-Sep-18 09:17 46.748197 -106.191435 44 34969ft 509kts
11-Sep-18 09:18 46.829086 -106.065808 44 34969ft 510kts
11-Sep-18 09:19 46.926177 -105.914232 44 34967ft 509kts
11-Sep-18 09:20 47.022892 -105.762383 44 34962ft 511kts
11-Sep-18 09:21 47.119674 -105.609556 44 34959ft 512kts
11-Sep-18 09:22 47.216460 -105.455843 44 34947ft 513kts
11-Sep-18 09:23 47.313321 -105.301118 44 34945ft 513kts
11-Sep-18 09:24 47.410107 -105.145608 44 34943ft 513kts
11-Sep-18 09:25 47.506445 -104.989909 44 34939ft 513kts
11-Sep-18 09:26 47.602341 -104.834015 44 34933ft 514kts
11-Sep-18 09:27 47.698529 -104.676720 44 34926ft 513kts
11-Sep-18 09:28 47.794257 -104.519256 44 34914ft 513kts
11-Sep-18 09:29 47.889798 -104.361138 44 34911ft 515kts
11-Sep-18 09:30 47.985545 -104.201766 44 34909ft 515kts
11-Sep-18 09:31 48.081224 -104.042404 44 34897ft 516kts
11-Sep-18 09:32 48.176524 -103.881322 45 34891ft 516kts
11-Sep-18 09:33 48.256893 -103.704121 74 34885ft 525kts
11-Sep-18 09:34 48.252253 -103.487503 98 34889ft 523kts
11-Sep-18 09:35 48.242897 -103.268955 93 34889ft 525kts
11-Sep-18 09:36 48.239094 -103.050551 93 34888ft 524kts
11-Sep-18 09:37 48.234093 -102.829274 93 35038ft 532kts
11-Sep-18 09:38 48.228411 -102.608097 93 35538ft 530kts
11-Sep-18 09:39 48.222336 -102.388538 93 36037ft 525kts
11-Sep-18 09:40 48.215873 -102.170372 93 36536ft 523kts
11-Sep-18 09:41 48.209028 -101.952975 93 36819ft 521kts
11-Sep-18 09:42 48.201761 -101.735384 93 36791ft 521kts
11-Sep-18 09:43 48.194116 -101.518814 94 36777ft 522kts
11-Sep-18 09:44 48.186009 -101.300956 94 36769ft 523kts
11-Sep-18 09:45 48.177508 -101.083395 94 36767ft 523kts
11-Sep-18 09:46 48.168604 -100.866214 94 36760ft 522kts
11-Sep-18 09:47 48.159286 -100.648916 94 36748ft 521kts
11-Sep-18 09:48 48.149653 -100.433780 95 36737ft 518kts
11-Sep-18 09:49 48.139633 -100.219029 95 36730ft 516kts
11-Sep-18 09:50 48.129266 -100.005430 95 36727ft 514kts
11-Sep-18 09:51 48.118510 -99.792063 95 36725ft 514kts
11-Sep-18 09:52 48.107332 -99.578262 95 36726ft 515kts
11-Sep-18 09:53 48.095738 -99.364272 96 36728ft 516kts
11-Sep-18 09:54 48.083752 -99.150328 96 36722ft 517kts
11-Sep-18 09:55 48.071353 -98.936287 96 36720ft 517kts
11-Sep-18 09:56 48.058552 -98.722256 96 36719ft 515kts
11-Sep-18 09:57 48.045403 -98.509102 96 36718ft 513kts
11-Sep-18 09:58 48.031930 -98.297142 97 36715ft 512kts
11-Sep-18 09:59 48.018060 -98.085173 97 36711ft 511kts
11-Sep-18 10:00 48.003827 -97.873685 97 36708ft 511kts
11-Sep-18 10:01 47.989249 -97.662704 97 36707ft 511kts
11-Sep-18 10:02 47.974647 -97.451397 97 36709ft 510kts
11-Sep-18 10:03 47.958951 -97.241017 97 36709ft 510kts
11-Sep-18 10:04 47.963126 -97.029430 83 36710ft 512kts
11-Sep-18 10:05 47.979645 -96.818749 84 36724ft 512kts
11-Sep-18 10:06 47.994318 -96.607087 83 36733ft 513kts
11-Sep-18 10:07 48.009268 -96.394793 84 36756ft 514kts
11-Sep-18 10:08 48.023100 -96.182455 84 36777ft 513kts
11-Sep-18 10:09 48.036455 -95.970008 84 36776ft 513kts
11-Sep-18 10:10 48.049395 -95.757650 85 36772ft 513kts
11-Sep-18 10:11 48.061934 -95.545318 85 36787ft 514kts
11-Sep-18 10:12 48.074132 -95.332010 85 36791ft 514kts
11-Sep-18 10:13 48.085923 -95.118781 85 36804ft 515kts
11-Sep-18 10:14 48.097326 -94.905359 85 36807ft 515kts
11-Sep-18 10:15 48.108310 -94.692286 86 36812ft 512kts
11-Sep-18 10:16 48.118845 -94.480284 86 36810ft 511kts
11-Sep-18 10:17 48.129023 -94.267469 86 36816ft 511kts
11-Sep-18 10:18 48.138781 -94.055200 86 36833ft 510kts
11-Sep-18 10:19 48.148129 -93.843265 87 36852ft 510kts
11-Sep-18 10:20 48.157086 -93.631306 87 36853ft 511kts
11-Sep-18 10:21 48.165684 -93.418470 87 36870ft 512kts
11-Sep-18 10:22 48.173898 -93.205350 87 36889ft 513kts
11-Sep-18 10:23 48.181714 -92.992250 87 36896ft 513kts
11-Sep-18 10:24 48.189151 -92.778645 87 36909ft 513kts
11-Sep-18 10:25 48.196181 -92.565354 87 36938ft 512kts
11-Sep-18 10:26 48.202812 -92.352117 87 36949ft 511kts
11-Sep-18 10:27 48.209031 -92.139541 88 36949ft 510kts
11-Sep-18 10:28 48.214837 -91.927572 88 36952ft 509kts
11-Sep-18 10:29 48.220262 -91.715343 88 36966ft 510kts
11-Sep-18 10:30 48.225304 -91.502686 88 36955ft 510kts
11-Sep-18 10:31 48.229960 -91.289573 88 36976ft 511kts
11-Sep-18 10:32 48.234220 -91.076731 88 36992ft 510kts
11-Sep-18 10:33 48.238080 -90.864328 89 37008ft 510kts
11-Sep-18 10:34 48.241545 -90.652124 89 37021ft 508kts
11-Sep-18 10:35 48.244620 -90.439825 89 37034ft 506kts
11-Sep-18 10:36 48.247284 -90.229289 89 37037ft 505kts
11-Sep-18 10:37 48.249568 -90.018654 89 37030ft 504kts
11-Sep-18 10:38 48.252027 -89.808202 89 37018ft 504kts
11-Sep-18 10:39 48.253182 -89.597993 90 37006ft 504kts
11-Sep-18 10:40 48.260785 -89.387426 79 37002ft 505kts
11-Sep-18 10:41 48.294673 -89.182291 74 37001ft 506kts
11-Sep-18 10:42 48.328486 -88.977022 75 37004ft 507kts
11-Sep-18 10:43 48.362466 -88.771965 75 37009ft 506kts
11-Sep-18 10:44 48.395551 -88.566249 75 37011ft 505kts
11-Sep-18 10:45 48.427988 -88.360530 75 37017ft 504kts
11-Sep-18 10:46 48.459886 -88.155482 76 37022ft 504kts
11-Sep-18 10:47 48.491444 -87.949979 76 37042ft 504kts
11-Sep-18 10:48 48.522663 -87.744048 76 37080ft 503kts
11-Sep-18 10:49 48.553563 -87.537537 76 37084ft 504kts
11-Sep-18 10:50 48.583990 -87.331483 76 37087ft 505kts
11-Sep-18 10:51 48.614230 -87.123938 76 37091ft 505kts
11-Sep-18 10:52 48.644131 -86.915897 76 37094ft 506kts
11-Sep-18 10:53 48.673662 -86.707568 76 37096ft 506kts
11-Sep-18 10:54 48.702780 -86.499274 77 37099ft 506kts
11-Sep-18 10:55 48.731521 -86.290747 77 37100ft 507kts
11-Sep-18 10:56 48.759961 -86.081439 77 37099ft 506kts
11-Sep-18 10:57 48.787967 -85.872306 77 37098ft 508kts
11-Sep-18 10:58 48.816169 -85.662617 77 37097ft 508kts
11-Sep-18 10:59 48.843319 -85.451613 77 37099ft 509kts
11-Sep-18 11:00 48.861289 -85.239363 94 37097ft 511kts
11-Sep-18 11:01 48.820844 -85.033963 111 37106ft 509kts
11-Sep-18 11:02 48.776184 -84.829542 108 37109ft 510kts
11-Sep-18 11:03 48.734538 -84.624819 108 37129ft 510kts
11-Sep-18 11:04 48.692190 -84.419721 108 37131ft 509kts
11-Sep-18 11:05 48.649300 -84.215541 109 37132ft 509kts
11-Sep-18 11:06 48.606170 -84.012416 109 37133ft 507kts
11-Sep-18 11:07 48.562727 -83.809837 109 37131ft 506kts
11-Sep-18 11:08 48.518794 -83.606935 109 37127ft 506kts
11-Sep-18 11:09 48.474519 -83.404607 110 37132ft 506kts
11-Sep-18 11:10 48.429654 -83.201577 110 37144ft 520kts
11-Sep-18 11:11 48.384207 -82.997696 110 37142ft 505kts
11-Sep-18 11:12 48.338612 -82.795119 110 37146ft 516kts
11-Sep-18 11:13 48.292504 -82.592534 111 37131ft 512kts
11-Sep-18 11:14 48.246452 -82.391698 111 37134ft 510kts
11-Sep-18 11:15 48.200089 -82.191683 111 37141ft 509kts
11-Sep-18 11:16 48.153151 -81.990874 111 37139ft 513kts
11-Sep-18 11:17 48.105680 -81.789744 111 37135ft 506kts
11-Sep-18 11:18 48.058475 -81.591506 111 37142ft 511kts
11-Sep-18 11:19 48.009767 -81.389069 112 37148ft 519kts
11-Sep-18 11:20 47.961451 -81.189675 112 37148ft 510kts
11-Sep-18 11:21 47.913210 -80.990502 113 37153ft 511kts
11-Sep-18 11:22 47.863682 -80.791502 113 37162ft 512kts
11-Sep-18 11:23 47.811915 -80.593565 116 37181ft 512kts
11-Sep-18 11:24 47.756393 -80.398834 116 37186ft 513kts
11-Sep-18 11:25 47.700947 -80.203278 115 37189ft 513kts
11-Sep-18 11:26 47.646441 -80.007517 116 37192ft 513kts
11-Sep-18 11:27 47.590962 -79.812941 116 37190ft 512kts
11-Sep-18 11:28 47.535110 -79.618872 117 37193ft 512kts
11-Sep-18 11:29 47.488298 -79.457436 117 37196ft 511kts
11-Sep-18 11:30 47.422632 -79.232755 117 37200ft 511kts
11-Sep-18 11:31 47.365962 -79.040491 117 37205ft 510kts
11-Sep-18 11:32 47.318592 -78.880920 118 37208ft 510kts
11-Sep-18 11:33 47.252155 -78.658835 118 37218ft 508kts
11-Sep-18 11:34 47.204399 -78.500413 118 37219ft 509kts
11-Sep-18 11:35 47.146523 -78.309735 118 37221ft 509kts
11-Sep-18 11:36 47.079159 -78.088192 119 37222ft 508kts
11-Sep-18 11:37 47.030492 -77.931410 119 37224ft 508kts
11-Sep-18 11:38 46.961151 -77.753712 132 37227ft 497kts
11-Sep-18 11:39 46.874991 -77.596169 134 37235ft 496kts
11-Sep-18 11:40 46.789997 -77.438097 133 37239ft 495kts
11-Sep-18 11:41 46.705974 -77.279069 133 37235ft 494kts
11-Sep-18 11:42 46.621417 -77.121320 133 37238ft 494kts
11-Sep-18 11:43 46.536660 -76.964311 133 37239ft 494kts
11-Sep-18 11:44 46.451821 -76.808052 134 37240ft 493kts
11-Sep-18 11:45 46.366679 -76.652114 134 37240ft 493kts
11-Sep-18 11:46 46.281377 -76.496744 134 37240ft 493kts
11-Sep-18 11:47 46.196034 -76.342178 134 37238ft 491kts
11-Sep-18 11:48 46.110618 -76.188316 134 37236ft 490kts
11-Sep-18 11:49 46.025626 -76.035239 134 37234ft 490kts
11-Sep-18 11:50 45.939807 -75.882958 134 37232ft 490kts
11-Sep-18 11:51 45.850515 -75.735948 141 37232ft 484kts
11-Sep-18 11:52 45.754938 -75.600982 141 37232ft 484kts
11-Sep-18 11:53 45.659816 -75.464391 141 37230ft 483kts
11-Sep-18 11:54 45.565589 -75.327320 141 37229ft 482kts
11-Sep-18 11:55 45.470935 -75.191359 141 37232ft 482kts
11-Sep-18 11:56 45.376401 -75.056421 142 37233ft 481kts
11-Sep-18 11:57 45.281826 -74.922114 142 37229ft 481kts
11-Sep-18 11:58 45.186601 -74.787557 142 37230ft 480kts
11-Sep-18 11:59 45.091895 -74.654397 142 37230ft 480kts
11-Sep-18 12:00 44.996883 -74.521461 142 37231ft 479kts
11-Sep-18 12:01 44.902421 -74.389255 143 37231ft 478kts
11-Sep-18 12:02 44.807660 -74.258343 143 37232ft 476kts
11-Sep-18 12:03 44.709051 -74.137518 159 37227ft 457kts
11-Sep-18 12:04 44.590418 -74.091325 175 37232ft 440kts
11-Sep-18 12:05 44.471176 -74.052293 173 37237ft 441kts
11-Sep-18 12:06 44.352032 -74.010544 173 37238ft 441kts
11-Sep-18 12:07 44.232889 -73.968618 173 37236ft 439kts
11-Sep-18 12:08 44.114224 -73.927155 173 37234ft 439kts
11-Sep-18 12:09 43.995696 -73.885947 173 37232ft 439kts
11-Sep-18 12:10 43.877162 -73.844899 173 37229ft 439kts
11-Sep-18 12:11 43.758554 -73.803993 173 37227ft 439kts
11-Sep-18 12:12 43.672226 -73.774331 173 37226ft 439kts
11-Sep-18 12:13 43.594214 -73.747636 173 37225ft 440kts
11-Sep-18 12:14 43.474957 -73.706749 172 37223ft 441kts
11-Sep-18 12:15 43.356434 -73.666450 172 37220ft 441kts
11-Sep-18 12:16 43.236738 -73.625983 172 37220ft 442kts
11-Sep-18 12:17 43.120491 -73.640848 203 37227ft 420kts
11-Sep-18 12:18 43.010138 -73.692666 201 37231ft 421kts
11-Sep-18 12:19 42.897515 -73.740126 200 37229ft 423kts
11-Sep-18 12:20 42.784884 -73.787408 200 37232ft 424kts
11-Sep-18 12:21 42.672696 -73.836485 201 37231ft 424kts
11-Sep-18 12:22 42.561550 -73.886311 201 37069ft 412kts
11-Sep-18 12:23 42.454701 -73.934347 201 35928ft 397kts
11-Sep-18 12:24 42.350425 -73.980643 201 34571ft 389kts
11-Sep-18 12:25 42.248976 -74.025540 201 33223ft 381kts
11-Sep-18 12:26 42.149084 -74.069734 201 31884ft 374kts
11-Sep-18 12:27 42.051070 -74.112905 201 30615ft 366kts
11-Sep-18 12:28 41.955778 -74.154712 201 29243ft 355kts
11-Sep-18 12:29 41.878453 -74.188481 201 27981ft 348kts
11-Sep-18 12:30 41.787480 -74.228249 201 26494ft 340kts
11-Sep-18 12:31 41.697928 -74.267164 201 25002ft 334kts
11-Sep-18 12:32 41.610164 -74.305270 201 23519ft 328kts
11-Sep-18 12:33 41.524201 -74.342471 201 22097ft 321kts
11-Sep-18 12:34 41.440067 -74.378748 201 20700ft 314kts
11-Sep-18 12:35 41.364761 -74.411194 201 19432ft 307kts
11-Sep-18 12:36 41.298551 -74.439591 201 18318ft 301kts
11-Sep-18 12:37 41.218907 -74.473790 200 16734ft 302kts
11-Sep-18 12:38 41.145438 -74.505133 200 15485ft 295kts
11-Sep-18 12:39 41.067477 -74.536215 193 14142ft 290kts
11-Sep-18 12:40 40.987563 -74.545923 186 12822ft 287kts
11-Sep-18 12:41 40.908612 -74.553000 186 11542ft 281kts
11-Sep-18 12:42 40.831183 -74.560049 185 10288ft 276kts
11-Sep-18 12:43 40.756875 -74.556567 179 9394ft 262kts
11-Sep-18 12:44 40.690551 -74.552741 179 8360ft 257kts
11-Sep-18 12:45 40.623105 -74.530872 145 7278ft 257kts
11-Sep-18 12:46 40.567071 -74.473446 147 6210ft 255kts
11-Sep-18 12:47 40.507693 -74.419743 138 5131ft 259kts
11-Sep-18 12:48 40.499115 -74.334895 63 4074ft 252kts
11-Sep-18 12:49 40.536699 -74.263503 31 2994ft 236kts
11-Sep-18 12:50 40.593309 -74.227686 25 1910ft 210kts
11-Sep-18 12:51 40.637845 -74.199466 25 947ft 158kts
11-Sep-18 12:52 40.675594 -74.175516 24 161ft 145kts
11-Sep-18 12:53 40.695218 -74.163436 341 31ft 12kts
11-Sep-18 12:54 40.696724 -74.166860 295 31ft 9kts
11-Sep-18 12:55 40.696252 -74.169866 250 31ft 7kts
11-Sep-18 12:56 40.696867 -74.171578 331 31ft 5kts
11-Sep-18 12:57 40.698201 -74.172999 312 31ft 9kts
11-Sep-18 12:58 40.698651 -74.175857 204 31ft 8kts
11-Sep-18 12:59 40.697967 -74.175595 151 31ft 0kts
11-Sep-18 13:00 40.697967 -74.175595 151 31ft 0kts
11-Sep-18 13:01 40.697967 -74.175595 151 31ft 0kts

Navigation Log

Ident Type
Flight plan parsing failed, navigation log unavailable